Hauptseite
METAR-TAF:

METAR-TAF

Flughäfen :

Flughafen Sitten

Sion, Schweiz

Breite: 46-13N, Länge: 007-20E, Höhe: 482 m

Beobachtung

Neuester Wetterbericht von vor 24 Minuten, um 10:20 UTC
Wind 24 kt aus Ost/Nordost, Böen bis zu 38 kt
Temperatur 19°C
Luftfeuchtigkeit 30%
Luftdruck 1010 hPa
Sichtweite 10 km oder mehr
Leicht bewölkt in der Höhe von 12000 ft
Durchbrochene Bewölkung in der Höhe von 25000 ft

METAR: LSGS 251020Z 07024G38KT 9999 FEW120 BKN250 19/01 Q1010

Zeit: 12:44 (10:44 UTC)

Prognose

Neuester Wetterbericht von vor 2 Stunden und 19 Minuten, um 08:25 UTC
Gültige Prognose vom 25 um 09 UTC bis 25 um 18 UTC
Wind 20 kt aus Ost, Böen bis zu 35 kt
Sichtweite 10 km oder mehr
Aufgelockert bewölkt in der Höhe von 10000 ft

TAF: LSGS 250825Z 2509/2518 08020G35KT 9999 SCT100

Wetterbeobachtungen und Prognosen von mehr als 4000 Flughäfen (METAR und TAF Bericht).

Die verfügbaren Stationen werden durch gelbe und rote Markierungen auf der Karte dargestellt.

Führen Sie die Maus auf sie, um den Namen der Station zu sehen.

Darauf klicken, um die Beobachtung von Wetterbeobachtungen und Prognosen zu sehen.

Um die Karte zu ändern : klicken Sie auf den grünen Tasten mit einem schwarzen Kreuz Zum Vergrößern, auf den grünen Button mit einem Gedankenstrich zu verkleinern, oder auf die grünen Pfeile für benachbarte Karten.


METAR-TAF: